Time;durP1;ratioP1;P1;durP2;ratioP2;P2;SDS_P1;SDS_P2;PMS_P1;PMS_P2;Temp;Humidity;BMP_temperature;BMP_pressure;BME280_temperature;BME280_humidity;BME280_pressure;Samples;Min_cycle;Max_cycle;Signal;HPM_P1;HPM_P2
2021/12/05 00:22:10;;;;;;;51.03;25.87;;;;;;;3.90;100.00;61220.44;5102169;28;20861;-77
2021/12/05 00:24:50;;;;;;;35.43;17.43;;;;;;;3.61;100.00;61184.53;5128538;28;20794;-79
2021/12/05 00:30:45;;;;;;;31.67;16.33;;;;;;;2.41;100.00;61060.59;5127066;28;20468;-76
2021/12/05 00:47:36;;;;;;;35.13;16.60;;;;;;;3.42;100.00;61166.88;5047023;28;20591;-77
2021/12/05 01:02:00;;;;;;;38.57;17.03;;;;;;;3.38;100.00;61162.59;5113758;28;20556;-78
2021/12/05 01:10:40;;;;;;;33.17;15.93;;;;;;;3.34;100.00;61158.34;5109084;27;20905;-78
2021/12/05 01:15:56;;;;;;;36.63;17.07;;;;;;;2.09;100.00;61034.16;5106809;28;20445;-76
2021/12/05 01:18:24;;;;;;;33.40;16.73;;;;;;;2.13;100.00;61030.84;5109163;28;20498;-78
2021/12/05 01:20:59;;;;;;;39.73;18.70;;;;;;;2.20;100.00;61043.31;5109725;28;20828;-78
2021/12/05 01:23:37;;;;;;;36.83;16.67;;;;;;;2.77;100.00;61100.81;5107842;28;20463;-76
2021/12/05 01:26:12;;;;;;;36.63;17.20;;;;;;;2.40;100.00;61064.53;5109118;28;20609;-80
2021/12/05 01:28:59;;;;;;;32.17;16.17;;;;;;;2.79;100.00;61099.88;5108676;28;20954;-79
2021/12/05 01:31:35;;;;;;;32.30;16.50;;;;;;;2.75;100.00;61096.19;5109006;27;20490;-76
2021/12/05 01:34:14;;;;;;;36.27;17.63;;;;;;;2.72;100.00;61089.94;5109039;27;20440;-77
2021/12/05 01:36:48;;;;;;;37.43;17.17;;;;;;;2.81;100.00;61097.53;5109228;27;20456;-77
2021/12/05 01:39:31;;;;;;;36.03;17.33;;;;;;;2.64;100.00;61083.97;5108802;28;20440;-77
2021/12/05 01:45:33;;;;;;;38.97;19.27;;;;;;;1.31;100.00;60943.81;5046185;28;20839;-75
2021/12/05 01:54:02;;;;;;;40.53;19.47;;;;;;;2.03;100.00;61022.75;5106322;28;20478;-76
2021/12/05 01:59:50;;;;;;;43.30;19.43;;;;;;;2.80;100.00;61098.44;5026093;28;20524;-77
2021/12/05 02:02:52;;;;;;;41.20;18.73;;;;;;;2.89;100.00;61110.50;5026155;28;20550;-76
2021/12/05 02:11:02;;;;;;;44.67;19.90;;;;;;;2.87;100.00;61110.91;5063830;28;20853;-77
2021/12/05 02:30:30;;;;;;;42.73;20.17;;;;;;;3.04;100.00;61126.47;5094037;28;20491;-77
2021/12/05 02:33:13;;;;;;;41.87;20.30;;;;;;;3.08;100.00;61135.75;5094069;28;20442;-78
2021/12/05 02:35:58;;;;;;;44.10;20.70;;;;;;;2.55;100.00;61075.47;5094197;28;20444;-79
2021/12/05 02:41:19;;;;;;;45.83;23.10;;;;;;;2.45;100.00;61072.38;5076192;28;20802;-77
2021/12/05 02:43:49;;;;;;;48.60;24.47;;;;;;;3.45;100.00;61172.56;5093963;28;20450;-77
2021/12/05 02:46:22;;;;;;;45.87;23.53;;;;;;;2.87;100.00;61111.44;5092591;28;20537;-78
2021/12/05 02:48:58;;;;;;;47.67;24.90;;;;;;;3.60;100.00;61191.03;5093835;28;21003;-77
2021/12/05 02:51:36;;;;;;;47.03;24.73;;;;;;;3.76;100.00;61208.06;5095714;28;20456;-78
2021/12/05 02:54:08;;;;;;;49.33;24.17;;;;;;;3.71;100.00;61197.16;5096641;28;20802;-76
2021/12/05 02:56:40;;;;;;;52.47;23.60;;;;;;;3.74;100.00;61200.34;5093784;28;20952;-77
2021/12/05 02:59:19;;;;;;;47.87;24.43;;;;;;;3.93;100.00;61218.56;5093820;28;20456;-78
2021/12/05 03:01:58;;;;;;;49.93;23.77;;;;;;;3.91;100.00;61218.44;5093722;28;20430;-78
2021/12/05 03:04:33;;;;;;;52.17;23.03;;;;;;;2.95;100.00;61124.97;5093518;28;20434;-76
2021/12/05 03:07:07;;;;;;;49.30;23.47;;;;;;;3.89;100.00;61216.84;5094076;28;20516;-78
2021/12/05 03:09:40;;;;;;;45.70;22.13;;;;;;;4.03;100.00;61231.72;5093336;28;20489;-77
2021/12/05 03:12:19;;;;;;;47.67;24.57;;;;;;;3.51;100.00;61181.47;5093227;28;20449;-76
2021/12/05 03:14:48;;;;;;;46.87;23.23;;;;;;;3.04;100.00;61126.47;5093036;28;20489;-78
2021/12/05 03:17:18;;;;;;;53.03;24.17;;;;;;;4.01;100.00;61229.59;5093581;28;20430;-78
2021/12/05 03:19:46;;;;;;;52.17;23.50;;;;;;;2.75;100.00;61098.16;5093717;28;20510;-78
2021/12/05 03:22:15;;;;;;;45.43;23.93;;;;;;;4.22;100.00;61257.00;5093885;28;20870;-76
2021/12/05 03:24:44;;;;;;;51.47;23.83;;;;;;;4.24;100.00;61253.56;5093426;28;20446;-77
2021/12/05 03:27:12;;;;;;;46.77;23.23;;;;;;;3.60;100.00;61180.97;5093872;28;20450;-76
2021/12/05 03:29:41;;;;;;;42.13;22.40;;;;;;;4.17;100.00;61248.63;5093377;28;20489;-78
2021/12/05 03:32:09;;;;;;;47.50;23.23;;;;;;;4.01;100.00;61234.66;5092968;28;20446;-77
2021/12/05 03:34:36;;;;;;;45.87;22.90;;;;;;;3.64;100.00;61185.22;5093502;28;20441;-79
2021/12/05 03:37:08;;;;;;;47.87;23.87;;;;;;;4.18;100.00;61247.72;5091999;28;20454;-77
2021/12/05 03:39:37;;;;;;;50.67;24.73;;;;;;;4.07;100.00;61241.03;5093256;28;20525;-78
2021/12/05 03:42:09;;;;;;;43.93;22.97;;;;;;;4.21;100.00;61255.94;5095277;28;20467;-79
2021/12/05 03:44:38;;;;;;;47.83;23.80;;;;;;;3.16;100.00;61144.25;5094587;28;20517;-76
2021/12/05 03:47:12;;;;;;;79.93;36.53;;;;;;;3.41;100.00;61168.31;5092752;28;20438;-78
2021/12/05 03:49:44;;;;;;;99.50;40.40;;;;;;;3.03;100.00;61128.44;5092756;28;20485;-76
2021/12/05 03:52:15;;;;;;;51.73;25.60;;;;;;;3.62;100.00;61193.16;5092273;28;20476;-76
2021/12/05 03:54:47;;;;;;;49.43;24.43;;;;;;;4.18;100.00;61252.22;5092807;28;20475;-77
2021/12/05 03:57:16;;;;;;;41.53;21.57;;;;;;;4.16;100.00;61245.56;5093168;28;20441;-76
2021/12/05 03:59:45;;;;;;;47.97;23.80;;;;;;;4.18;100.00;61247.72;5092551;28;20438;-77
2021/12/05 04:02:13;;;;;;;52.53;23.30;;;;;;;4.06;100.00;61237.47;5093055;28;20530;-78
2021/12/05 04:04:44;;;;;;;43.67;22.73;;;;;;;4.20;100.00;61249.84;5092401;28;20457;-77
2021/12/05 04:07:13;;;;;;;53.30;21.17;;;;;;;3.72;100.00;61201.28;5092790;28;20536;-78
2021/12/05 04:09:48;;;;;;;47.83;23.00;;;;;;;4.21;100.00;61250.88;5091957;28;20581;-77
2021/12/05 04:12:19;;;;;;;50.53;23.77;;;;;;;4.33;100.00;61262.59;5092756;28;20540;-77
2021/12/05 04:17:30;;;;;;;36.03;17.27;;;;;;;4.40;100.00;61270.03;5092421;28;20481;-77
2021/12/05 04:20:02;;;;;;;58.07;27.90;;;;;;;4.22;100.00;61251.97;5092249;28;20446;-77
2021/12/05 04:22:32;;;;;;;74.17;33.60;;;;;;;4.41;100.00;61271.13;5092492;28;20462;-75
2021/12/05 04:25:05;;;;;;;62.63;27.53;;;;;;;3.20;100.00;61144.00;5092116;28;20465;-77
2021/12/05 04:27:34;;;;;;;59.10;26.90;;;;;;;4.37;100.00;61266.88;5092114;28;20430;-78
2021/12/05 04:30:02;;;;;;;51.60;22.97;;;;;;;3.46;100.00;61173.09;5090292;28;20595;-79
2021/12/05 04:32:29;;;;;;;48.10;21.60;;;;;;;4.40;100.00;61270.03;5092025;28;20445;-77
2021/12/05 04:34:58;;;;;;;48.57;20.83;;;;;;;4.27;100.00;61262.31;5091573;28;20429;-76
2021/12/05 04:37:25;;;;;;;42.30;21.47;;;;;;;4.38;100.00;61267.91;5091597;28;20434;-77
2021/12/05 04:39:53;;;;;;;35.37;19.40;;;;;;;4.59;100.00;61292.81;5091809;28;20481;-78
2021/12/05 04:42:20;;;;;;;46.27;22.40;;;;;;;3.08;100.00;61133.75;5091623;28;20487;-76
2021/12/05 04:44:49;;;;;;;48.73;24.10;;;;;;;4.54;100.00;61282.44;5091278;28;20908;-76
2021/12/05 04:50:00;;;;;;;43.93;22.50;;;;;;;4.45;100.00;61275.38;5091788;28;20489;-75
2021/12/05 04:55:13;;;;;;;42.07;21.00;;;;;;;4.49;100.00;61279.63;5095438;27;20445;-76
2021/12/05 04:57:41;;;;;;;37.00;19.67;;;;;;;4.60;100.00;61291.34;5093503;28;20487;-78
2021/12/05 05:00:15;;;;;;;43.80;20.43;;;;;;;4.63;100.00;61292.03;5093004;28;20445;-78
2021/12/05 05:02:43;;;;;;;42.10;20.27;;;;;;;4.69;100.00;61305.97;5095616;28;20922;-76
2021/12/05 05:05:21;;;;;;;36.87;19.20;;;;;;;4.48;100.00;61276.56;5094472;28;20434;-78
2021/12/05 05:07:49;;;;;;;42.43;20.27;;;;;;;4.28;100.00;61265.91;5093613;28;20444;-77
2021/12/05 05:10:21;;;;;;;40.93;18.57;;;;;;;4.48;100.00;61283.59;5092265;28;20991;-77
2021/12/05 05:12:50;;;;;;;47.87;20.90;;;;;;;4.13;100.00;61241.84;5092892;28;20876;-76
2021/12/05 05:15:25;;;;;;;43.87;21.30;;;;;;;3.29;100.00;61155.56;5093089;28;20437;-76
2021/12/05 05:17:55;;;;;;;43.13;21.63;;;;;;;4.45;100.00;61275.91;5092884;28;20458;-75
2021/12/05 05:20:31;;;;;;;43.73;21.60;;;;;;;3.64;100.00;61189.72;5092946;28;20526;-79
2021/12/05 05:45:49;;;;;;;65.07;28.33;;;;;;;3.92;100.00;61220.03;5091178;28;20506;-78
2021/12/05 05:48:35;;;;;;;73.37;33.80;;;;;;;3.81;100.00;61207.78;5092661;28;20434;-76
2021/12/05 05:51:05;;;;;;;59.10;27.33;;;;;;;2.82;100.00;61105.59;5091954;28;20484;-76
2021/12/05 05:53:33;;;;;;;56.23;27.17;;;;;;;2.87;100.00;61108.94;5090995;28;20460;-76
2021/12/05 05:56:01;;;;;;;74.97;32.93;;;;;;;3.87;100.00;61214.72;5093034;28;20476;-76
2021/12/05 05:58:39;;;;;;;86.57;37.20;;;;;;;3.91;100.00;61218.97;5095270;28;21029;-77
2021/12/05 06:01:17;;;;;;;79.13;33.13;;;;;;;3.80;100.00;61207.28;5094525;28;20916;-76
2021/12/05 06:03:48;;;;;;;66.90;29.50;;;;;;;2.35;100.00;61053.69;5094317;28;20461;-77
2021/12/05 06:06:21;;;;;;;59.17;28.20;;;;;;;3.81;100.00;61208.34;5094399;28;20458;-77
2021/12/05 06:08:48;;;;;;;65.70;31.80;;;;;;;2.64;100.00;61083.97;5095171;28;20572;-75
2021/12/05 06:11:18;;;;;;;65.33;28.70;;;;;;;4.04;100.00;61232.81;5094336;28;20543;-76
2021/12/05 06:16:30;;;;;;;60.80;27.37;;;;;;;3.92;100.00;61222.56;5094378;28;20441;-77
2021/12/05 06:19:05;;;;;;;56.87;25.10;;;;;;;4.17;100.00;61248.63;5094920;28;20446;-80
2021/12/05 06:21:32;;;;;;;54.80;24.67;;;;;;;2.67;100.00;61094.69;5094303;28;20944;-76
2021/12/05 06:24:00;;;;;;;56.63;24.97;;;;;;;3.25;100.00;61154.34;5094210;28;20495;-77
2021/12/05 06:26:28;;;;;;;46.10;24.33;;;;;;;4.26;100.00;61258.75;5094171;28;20491;-77
2021/12/05 06:29:08;;;;;;;55.17;24.77;;;;;;;4.25;100.00;61255.16;5093984;28;20519;-78
2021/12/05 06:32:18;;;;;;;67.67;32.80;;;;;;;4.25;100.00;61252.63;5094083;28;20962;-78
2021/12/05 06:37:45;;;;;;;64.77;29.37;;;;;;;3.57;100.00;61182.25;5094236;28;20904;-78
2021/12/05 06:43:06;;;;;;;61.73;31.03;;;;;;;4.46;100.00;61276.44;5091708;28;20491;-77
2021/12/05 06:48:20;;;;;;;56.40;26.53;;;;;;;3.67;100.00;61195.97;5094392;28;20801;-78
2021/12/05 06:50:53;;;;;;;51.80;24.63;;;;;;;4.51;100.00;61284.81;5093963;28;20482;-78
2021/12/05 06:53:22;;;;;;;42.80;20.10;;;;;;;4.50;100.00;61280.69;5093735;28;20503;-77
2021/12/05 06:55:53;;;;;;;37.13;16.80;;;;;;;4.40;100.00;61270.03;5094173;28;20430;-78
2021/12/05 06:58:20;;;;;;;37.73;18.50;;;;;;;4.28;100.00;61258.34;5093335;28;20955;-78
2021/12/05 07:00:48;;;;;;;38.60;18.30;;;;;;;3.05;100.00;61125.00;5093610;28;20821;-75
2021/12/05 07:03:16;;;;;;;40.70;19.57;;;;;;;3.39;100.00;61163.66;5092564;28;20441;-77
2021/12/05 07:05:53;;;;;;;42.63;19.80;;;;;;;4.72;100.00;61306.63;5093697;28;20445;-77
2021/12/05 07:08:26;;;;;;;42.57;20.77;;;;;;;4.78;100.00;61313.03;5093246;28;20852;-75
2021/12/05 07:11:03;;;;;;;40.70;19.10;;;;;;;4.91;100.00;61326.88;5093302;28;20486;-76
2021/12/05 07:16:31;;;;;;;41.17;20.70;;;;;;;4.05;100.00;61238.91;5093422;28;20801;-77
2021/12/05 07:21:46;;;;;;;63.03;26.27;;;;;;;4.89;100.00;61325.25;5091289;28;20511;-77
2021/12/05 07:24:39;;;;;;;125.37;50.27;;;;;;;5.48;100.00;61382.53;5094117;28;20430;-75
2021/12/05 07:40:20;;;;;;;69.80;33.87;;;;;;;4.51;100.00;61289.34;5093058;28;20962;-78
2021/12/05 07:41:13;;;;;;;48.87;22.93;;;;;;;5.42;100.00;61378.66;5093377;28;20502;-75
2021/12/05 07:43:43;;;;;;;52.33;23.80;;;;;;;5.86;100.00;61418.00;5092667;28;20442;-75
2021/12/05 07:46:12;;;;;;;31.10;15.90;;;;;;;5.30;100.00;61365.88;5092795;28;20488;-76
2021/12/05 07:48:44;;;;;;;34.20;16.80;;;;;;;6.01;100.00;61441.06;5092126;28;20437;-76
2021/12/05 07:51:24;;;;;;;29.40;15.60;;;;;;;6.17;100.00;61458.09;5092317;28;20934;-77
2021/12/05 07:54:03;;;;;;;31.33;16.53;;;;;;;5.78;100.00;61417.03;5092434;27;20894;-78
2021/12/05 07:56:39;;;;;;;27.60;13.83;;;;;;;6.06;100.00;61445.84;5092864;28;20430;-76
2021/12/05 07:59:20;;;;;;;34.47;17.87;;;;;;;5.06;100.00;61340.31;5092373;28;20434;-75
2021/12/05 08:15:44;;;;;;;27.33;15.30;;;;;;;6.74;100.00;61523.44;5092299;28;20429;-76
2021/12/05 08:18:13;;;;;;;33.10;16.00;;;;;;;5.56;100.00;61396.13;5091582;28;20912;-78
2021/12/05 08:20:44;;;;;;;28.53;16.00;;;;;;;6.91;100.00;61536.50;5091401;28;20598;-78
2021/12/05 08:23:14;;;;;;;28.00;15.80;;;;;;;5.52;100.00;61389.31;5092209;28;20498;-76
2021/12/05 08:25:44;;;;;;;31.50;16.47;;;;;;;6.48;100.00;61491.16;5092247;28;20433;-77
2021/12/05 08:28:29;;;;;;;37.23;20.87;;;;;;;6.60;100.00;61505.97;5092038;28;20446;-76
2021/12/05 08:31:09;;;;;;;28.27;15.50;;;;;;;6.83;100.00;61525.44;5091219;28;20562;-76
2021/12/05 08:33:53;;;;;;;35.83;17.80;;;;;;;6.68;100.00;61517.03;5091684;28;20436;-79
2021/12/05 08:45:09;;;;;;;40.97;21.50;;;;;;;7.27;100.00;61574.94;5091171;28;20490;-76
2021/12/05 09:21:10;;;;;;;34.83;18.87;;;;;;;8.05;100.00;61657.72;5068279;28;20445;-76
2021/12/05 09:29:24;;;;;;;30.87;17.23;;;;;;;7.57;100.00;61609.50;5091485;28;20461;-78
2021/12/05 10:02:38;;;;;;;38.30;19.43;;;;;;;7.17;100.00;61569.34;5094871;28;20476;-75
2021/12/05 10:10:48;;;;;;;24.90;14.67;;;;;;;8.87;100.00;61744.84;5094887;28;20500;-76
2021/12/05 10:13:23;;;;;;;26.63;13.53;;;;;;;8.03;100.00;61650.50;5095108;28;20433;-78
2021/12/05 10:27:20;;;;;;;23.23;14.00;;;;;;;10.46;100.00;61915.97;5094502;28;20533;-77
2021/12/05 10:38:18;;;;;;;17.03;9.97;;;;;;;13.57;100.00;62245.47;5075633;28;20199;-77
2021/12/05 10:40:56;;;;;;;16.30;10.83;;;;;;;14.01;100.00;62292.22;5093364;27;20222;-79
2021/12/05 10:43:25;;;;;;;17.67;11.30;;;;;;;14.01;100.00;62295.31;5093463;28;20203;-77
2021/12/05 10:45:56;;;;;;;17.77;11.03;;;;;;;15.35;100.00;62435.84;5093649;28;20203;-77
2021/12/05 10:48:26;;;;;;;16.23;10.93;;;;;;;16.59;100.00;62568.88;5093859;28;20204;-78
2021/12/05 10:50:57;;;;;;;17.23;11.50;;;;;;;17.23;100.00;62631.59;5094491;28;20288;-78
2021/12/05 10:53:34;;;;;;;19.40;11.20;;;;;;;17.50;100.00;62669.03;5094007;28;20199;-76
2021/12/05 10:56:07;;;;;;;16.13;11.27;;;;;;;18.20;100.00;62740.88;5093563;28;20256;-78
2021/12/05 10:58:42;;;;;;;20.43;10.63;;;;;;;18.14;100.00;62731.81;5093737;28;20200;-77
2021/12/05 11:01:19;;;;;;;24.27;11.67;;;;;;;16.49;100.00;62555.53;5093603;28;20264;-80
2021/12/05 11:03:48;;;;;;;22.27;13.90;;;;;;;16.31;100.00;62538.69;5092416;28;20206;-78
2021/12/05 11:06:26;;;;;;;17.27;11.20;;;;;;;15.63;100.00;62465.44;5093501;28;20611;-80
2021/12/05 11:09:02;;;;;;;21.20;12.00;;;;;;;16.47;100.00;62558.50;5093656;28;20232;-79
2021/12/05 11:11:31;;;;;;;19.73;11.40;;;;;;;16.09;100.00;62514.97;5093559;28;20257;-77
2021/12/05 11:14:01;;;;;;;18.77;11.73;;;;;;;16.10;100.00;62516.06;5093096;28;20200;-78
2021/12/05 11:16:37;;;;;;;24.97;12.27;;;;;;;15.58;100.00;62463.16;5093187;28;20234;-77
2021/12/05 11:19:10;;;;;;;20.70;11.90;;;;;;;16.92;100.00;62603.91;5092853;28;20195;-79
2021/12/05 11:21:46;;;;;;;23.07;12.33;;;;;;;16.45;100.00;62553.22;5094808;28;20199;-78
2021/12/05 11:24:25;;;;;;;15.13;9.70;;;;;;;16.84;100.00;62595.28;5092814;28;20202;-79
2021/12/05 11:27:19;;;;;;;15.63;10.27;;;;;;;17.50;100.00;62663.88;5093670;28;20650;-78
2021/12/05 11:30:00;;;;;;;16.67;10.17;;;;;;;18.65;100.00;62788.94;5092917;28;20226;-80
2021/12/05 11:32:36;;;;;;;13.93;10.23;;;;;;;18.22;100.00;62743.56;5094004;28;20266;-79
2021/12/05 11:35:17;;;;;;;16.93;10.33;;;;;;;18.85;100.00;62813.66;5097979;28;20199;-79
2021/12/05 11:38:02;;;;;;;15.77;10.70;;;;;;;19.10;100.00;62838.06;5093690;28;20199;-78
2021/12/05 11:40:44;;;;;;;18.87;9.33;;;;;;;19.44;100.00;62878.91;5093309;28;20208;-78
2021/12/05 11:43:29;;;;;;;14.23;8.23;;;;;;;20.00;100.00;62934.25;5093085;28;20195;-79
2021/12/05 11:46:01;;;;;;;14.43;8.63;;;;;;;19.51;100.00;62883.88;5093078;28;20206;-76
2021/12/05 11:48:34;;;;;;;12.57;7.93;;;;;;;19.80;100.00;62915.22;5092592;28;20199;-79
2021/12/05 11:51:03;;;;;;;10.67;7.80;;;;;;;20.08;100.00;62950.66;5092620;28;20329;-77
2021/12/05 11:53:57;;;;;;;20.77;9.47;;;;;;;20.09;100.00;62949.69;5091522;28;20200;-79
2021/12/05 11:56:39;;;;;;;13.47;8.53;;;;;;;19.99;100.00;62933.16;5092499;28;20196;-78
2021/12/05 11:59:14;;;;;;;21.70;8.53;;;;;;;19.80;100.00;62917.81;5092916;28;20543;-78
2021/12/05 12:01:46;;;;;;;12.90;8.60;;;;;;;21.01;100.00;63048.13;5092545;27;20195;-77
2021/12/05 12:04:17;;;;;;;16.47;8.93;;;;;;;19.00;100.00;62827.25;5092911;28;20196;-77
2021/12/05 12:06:47;;;;;;;24.73;11.13;;;;;;;19.95;100.00;62931.41;5092383;28;20253;-77
2021/12/05 12:09:15;;;;;;;12.23;7.30;;;;;;;21.38;100.00;63085.06;5091579;28;20228;-78
2021/12/05 12:11:42;;;;;;;10.70;6.67;;;;;;;19.87;100.00;62922.78;5092308;28;20234;-76
2021/12/05 12:14:13;;;;;;;10.73;8.33;;;;;;;21.19;100.00;63064.50;5091917;28;20628;-77
2021/12/05 12:16:44;;;;;;;17.47;8.93;;;;;;;19.04;100.00;62836.75;5092443;28;20248;-75
2021/12/05 12:19:21;;;;;;;19.87;12.03;;;;;;;20.17;100.00;62957.78;5090862;28;20225;-77
2021/12/05 12:21:53;;;;;;;16.27;10.57;;;;;;;21.14;100.00;63062.22;5091908;28;20721;-76
2021/12/05 12:24:24;;;;;;;14.47;8.23;;;;;;;21.83;100.00;63133.81;5091654;28;20258;-77
2021/12/05 12:26:56;;;;;;;14.00;8.00;;;;;;;21.00;100.00;63047.59;5092567;28;20256;-79
2021/12/05 12:29:27;;;;;;;10.53;7.97;;;;;;;21.93;100.00;63144.09;5091454;28;20227;-79
2021/12/05 12:32:01;;;;;;;13.50;8.00;;;;;;;21.91;100.00;63139.88;5092354;28;20234;-78
2021/12/05 12:37:16;;;;;;;10.97;8.07;;;;;;;21.09;100.00;63056.28;5092098;28;20282;-78
2021/12/05 12:39:45;;;;;;;12.47;8.40;;;;;;;21.48;100.00;63093.28;5092198;27;20208;-77
2021/12/05 12:42:23;;;;;;;11.10;8.60;;;;;;;19.97;100.00;62936.16;5091531;28;20208;-79
2021/12/05 12:45:13;;;;;;;14.13;8.87;;;;;;;20.76;100.00;63019.03;5091686;28;20241;-78
2021/12/05 12:47:44;;;;;;;12.80;9.67;;;;;;;18.37;100.00;62759.22;5092073;28;20278;-79
2021/12/05 12:50:42;;;;;;;14.47;8.57;;;;;;;20.26;100.00;62964.97;5091616;28;20195;-78
2021/12/05 12:53:16;;;;;;;12.23;8.37;;;;;;;21.56;100.00;63107.13;5091681;28;20654;-79
2021/12/05 12:55:52;;;;;;;11.43;7.90;;;;;;;22.54;100.00;63210.69;5091723;28;20312;-77
2021/12/05 12:58:35;;;;;;;13.63;9.80;;;;;;;22.62;100.00;63216.22;5091643;28;20630;-78
2021/12/05 13:01:18;;;;;;;16.20;8.30;;;;;;;23.20;100.00;63278.56;5091086;28;20208;-77
2021/12/05 13:12:51;;;;;;;13.33;10.80;;;;;;;24.69;100.00;63441.75;5049399;28;20235;-77
2021/12/05 13:15:27;;;;;;;17.70;9.03;;;;;;;24.66;100.00;63435.88;5048896;28;20205;-79
2021/12/05 13:17:59;;;;;;;13.50;8.97;;;;;;;25.30;100.00;63508.00;5072569;28;20199;-78
2021/12/05 13:20:47;;;;;;;15.20;11.93;;;;;;;24.62;100.00;63431.53;5091436;28;20260;-76
2021/12/05 13:23:17;;;;;;;19.10;14.43;;;;;;;24.29;100.00;63391.59;5091186;28;20210;-77
2021/12/05 13:26:03;;;;;;;15.50;12.20;;;;;;;23.34;100.00;63294.28;5090256;28;20528;-76
2021/12/05 13:28:37;;;;;;;8.67;7.73;;;;;;;22.96;100.00;63253.06;5091124;28;20201;-78
2021/12/05 13:31:35;;;;;;;11.30;9.33;;;;;;;22.27;100.00;63180.91;5092782;28;20252;-77
2021/12/05 13:34:28;;;;;;;13.77;7.57;;;;;;;21.90;100.00;63138.78;5091620;28;20234;-77
2021/12/05 13:37:13;;;;;;;8.90;7.07;;;;;;;21.46;100.00;63096.31;5090922;28;20230;-78
2021/12/05 13:39:43;;;;;;;10.67;7.47;;;;;;;20.65;100.00;63007.13;5091070;28;20211;-79
2021/12/05 13:42:16;;;;;;;15.33;11.43;;;;;;;19.92;100.00;62928.19;5101422;28;20290;-80
2021/12/05 13:45:07;;;;;;;14.13;9.27;;;;;;;19.00;100.00;62829.28;5091471;28;20283;-76
2021/12/05 13:47:39;;;;;;;15.17;10.10;;;;;;;19.01;100.00;62832.97;5091781;28;20211;-78
2021/12/05 13:50:33;;;;;;;15.63;10.30;;;;;;;18.85;100.00;62816.22;5091379;28;20199;-77
2021/12/05 13:53:21;;;;;;;12.50;8.53;;;;;;;16.98;100.00;62615.50;5091063;28;20235;-76
2021/12/05 13:56:06;;;;;;;9.70;7.73;;;;;;;15.92;100.00;62502.34;5092172;28;20195;-79
2021/12/05 13:58:46;;;;;;;15.40;8.10;;;;;;;13.24;100.00;62215.16;5090385;28;20199;-78
2021/12/05 14:01:21;;;;;;;19.20;8.40;;;;;;;13.23;100.00;62214.06;5092919;28;20195;-77
2021/12/05 14:04:02;;;;;;;11.77;7.70;;;;;;;11.56;100.00;62033.31;5090172;28;20199;-79
2021/12/05 14:06:38;;;;;;;16.20;10.80;;;;;;;11.52;100.00;62034.13;5090791;28;20203;-76
2021/12/05 14:09:11;;;;;;;13.70;9.43;;;;;;;10.96;100.00;61972.09;5090500;28;20230;-76
2021/12/05 14:11:49;;;;;;;20.47;11.40;;;;;;;10.63;100.00;61939.81;5089480;28;20343;-80
2021/12/05 14:14:20;;;;;;;38.00;16.03;;;;;;;9.93;100.00;61862.28;5091196;28;20207;-79
2021/12/05 14:16:49;;;;;;;28.03;16.90;;;;;;;8.66;100.00;61727.47;5093366;28;20561;-77
2021/12/05 14:19:19;;;;;;;26.90;15.13;;;;;;;9.95;100.00;61864.41;5094284;28;20619;-78
2021/12/05 14:21:57;;;;;;;32.87;19.50;;;;;;;9.26;100.00;61789.09;5093971;28;20204;-77
2021/12/05 14:24:29;;;;;;;32.27;18.30;;;;;;;7.43;100.00;61594.56;5094478;28;20502;-77
2021/12/05 14:26:58;;;;;;;23.83;13.73;;;;;;;8.80;100.00;61744.97;5094188;28;20459;-76
2021/12/05 14:29:27;;;;;;;21.80;12.50;;;;;;;7.44;100.00;61597.63;5092944;28;20461;-77
2021/12/05 14:31:57;;;;;;;31.70;15.87;;;;;;;7.50;100.00;61604.56;5094037;28;20481;-77
2021/12/05 14:34:26;;;;;;;25.60;14.17;;;;;;;7.28;100.00;61575.47;5094180;27;20450;-78
2021/12/05 14:37:01;;;;;;;23.47;13.50;;;;;;;8.16;100.00;61674.53;5093659;28;20449;-77
2021/12/05 14:39:34;;;;;;;20.60;13.97;;;;;;;8.10;100.00;61667.59;5094101;28;20498;-77
2021/12/05 14:42:05;;;;;;;21.10;12.27;;;;;;;8.07;100.00;61664.41;5093917;28;20452;-77
2021/12/05 14:44:33;;;;;;;23.30;13.43;;;;;;;6.54;100.00;61497.03;5094219;28;20429;-80
2021/12/05 14:47:09;;;;;;;26.40;17.17;;;;;;;7.96;100.00;61650.09;5093582;28;20442;-77
2021/12/05 14:49:40;;;;;;;37.97;18.83;;;;;;;7.78;100.00;61633.94;5093869;28;20961;-78
2021/12/05 14:52:14;;;;;;;23.10;13.53;;;;;;;7.47;100.00;61596.28;5093623;28;20496;-77
2021/12/05 14:54:47;;;;;;;24.50;12.73;;;;;;;6.68;100.00;61517.03;5094068;28;20434;-77
2021/12/05 14:57:18;;;;;;;18.40;11.00;;;;;;;7.25;100.00;61580.41;5093464;28;20445;-76
2021/12/05 14:59:48;;;;;;;16.67;10.77;;;;;;;6.99;100.00;61544.50;5093878;28;20879;-77
2021/12/05 15:02:17;;;;;;;19.07;10.77;;;;;;;7.03;100.00;61559.44;5093264;28;20506;-79
2021/12/05 15:04:49;;;;;;;21.17;11.80;;;;;;;6.81;100.00;61530.91;5093552;28;21021;-77
2021/12/05 15:07:23;;;;;;;22.53;12.13;;;;;;;6.55;100.00;61503.16;5093406;28;20457;-76
2021/12/05 15:10:10;;;;;;;20.17;12.03;;;;;;;6.70;100.00;61519.19;5093600;28;20546;-78
2021/12/05 15:12:39;;;;;;;21.60;12.27;;;;;;;5.53;100.00;61389.88;5091663;28;20484;-78
2021/12/05 15:15:12;;;;;;;22.20;13.27;;;;;;;6.49;100.00;61494.78;5093671;27;20450;-77
2021/12/05 15:17:43;;;;;;;19.53;11.73;;;;;;;6.19;100.00;61464.75;5093589;27;21013;-76
2021/12/05 15:20:17;;;;;;;26.67;12.67;;;;;;;5.16;100.00;61356.03;5093979;28;20441;-78
2021/12/05 15:23:02;;;;;;;24.30;12.37;;;;;;;6.41;100.00;61483.16;5092051;28;20441;-79
2021/12/05 15:25:31;;;;;;;19.17;11.63;;;;;;;6.39;100.00;61481.03;5093221;28;20534;-75
2021/12/05 15:28:01;;;;;;;23.40;11.03;;;;;;;6.35;100.00;61481.81;5093150;28;20495;-78
2021/12/05 15:33:22;;;;;;;34.57;18.43;;;;;;;6.44;100.00;61488.91;5092401;28;20576;-75
2021/12/05 15:35:53;;;;;;;23.83;13.40;;;;;;;6.02;100.00;61439.56;5094141;28;20425;-78
2021/12/05 15:41:13;;;;;;;25.70;13.93;;;;;;;6.30;100.00;61471.44;5092781;28;20437;-76
2021/12/05 15:43:42;;;;;;;20.73;11.83;;;;;;;6.10;100.00;61452.66;5092854;28;20530;-77
2021/12/05 15:46:13;;;;;;;23.23;12.37;;;;;;;6.11;100.00;61453.69;5093037;28;20452;-77
2021/12/05 15:48:45;;;;;;;26.60;15.93;;;;;;;6.30;100.00;61476.50;5095008;27;20446;-77
2021/12/05 15:51:12;;;;;;;25.13;14.83;;;;;;;5.06;100.00;61340.31;5102000;28;20492;-78
2021/12/05 15:53:41;;;;;;;22.67;12.83;;;;;;;5.81;100.00;61420.25;5092888;28;20485;-76
2021/12/05 15:56:19;;;;;;;26.50;13.50;;;;;;;6.11;100.00;61451.72;5092695;28;20437;-76
2021/12/05 15:58:57;;;;;;;30.23;15.67;;;;;;;5.56;100.00;61393.06;5092931;28;20912;-77
2021/12/05 16:01:27;;;;;;;25.97;14.83;;;;;;;5.79;100.00;61418.13;5093027;28;20863;-75
2021/12/05 16:03:57;;;;;;;25.60;14.40;;;;;;;6.27;100.00;61473.28;5092782;28;20511;-77
2021/12/05 16:06:34;;;;;;;26.73;15.67;;;;;;;5.75;100.00;61418.91;5092730;28;20487;-77
2021/12/05 16:09:14;;;;;;;39.07;17.53;;;;;;;6.28;100.00;61474.38;5092302;28;20466;-76
2021/12/05 16:11:49;;;;;;;36.03;18.97;;;;;;;5.70;100.00;61411.03;5092311;28;20425;-78
2021/12/05 16:14:35;;;;;;;91.77;35.87;;;;;;;5.92;100.00;61437.03;5092280;28;20438;-78
2021/12/05 16:17:03;;;;;;;47.70;22.90;;;;;;;4.85;100.00;61312.91;5092626;28;20430;-76
2021/12/05 16:19:35;;;;;;;38.83;23.13;;;;;;;5.89;100.00;61426.28;5092258;28;20915;-76
2021/12/05 16:22:02;;;;;;;40.73;21.10;;;;;;;5.54;100.00;61396.50;5092284;28;20518;-77
2021/12/05 16:24:40;;;;;;;44.33;22.57;;;;;;;5.90;100.00;61434.91;5092269;28;20438;-80
2021/12/05 16:27:09;;;;;;;38.87;20.23;;;;;;;4.42;100.00;61274.69;5092215;28;20445;-78
2021/12/05 16:29:39;;;;;;;38.43;21.83;;;;;;;5.79;100.00;61418.13;5092292;28;20470;-75
2021/12/05 16:32:08;;;;;;;39.03;20.50;;;;;;;5.83;100.00;61426.91;5090466;28;20470;-76
2021/12/05 16:34:42;;;;;;;44.80;23.13;;;;;;;5.12;100.00;61346.72;5092332;28;20449;-79
2021/12/05 16:37:14;;;;;;;45.93;24.30;;;;;;;5.65;100.00;61402.66;5092386;28;20429;-78
2021/12/05 16:40:24;;;;;;;43.57;23.90;;;;;;;3.74;100.00;61205.41;5092322;28;20882;-77